Skrydstrup, Denmark
Current Conditions -  °F | °C
As of 5:50 PM on Sunday 21 Dec 2014 (Local Time) from EKSP Reporting Station
Light Rain Light Rain  
Wind Chill: 36°   Ceiling: 1000
Heat Index: 45°   Visibility: 4mi
Dew Point: 43°   Wind: 22mph
Humidity: 93%   Direction: 250°WSW
Pressure: 29.83"   Gusts: 33mph
Location:  55.24°N, 9.25°E
Report Text: EKSP 211650Z 25019G29KT 6000 -DZRA SCT008 BKN010 BKN01507/06 Q1010
Loading
Personal Weather Stations






























Interactive Weather Map New forecast layout! Learn more

10-Day Weather Forecast

Advertisements
Track Severe Weather on mobile